createdAt,value
2023-04-27T00:00:53.324Z,98209.31
2023-04-27T00:01:56.326Z,98208.56
2023-04-27T00:02:59.524Z,98201.16
2023-04-27T00:04:04.720Z,98198.66
2023-04-27T00:05:08.473Z,98198.66
2023-04-27T00:06:11.635Z,98189.56
2023-04-27T00:07:14.389Z,98198.97
2023-04-27T00:08:17.947Z,98199.50
2023-04-27T00:09:20.824Z,98196.06
2023-04-27T00:10:23.775Z,98195.53
2023-04-27T00:11:26.599Z,98196.25
2023-04-27T00:12:29.616Z,98200.25
2023-04-27T00:13:32.422Z,98196.78
2023-04-27T00:14:35.258Z,98199.31
2023-04-27T00:15:38.036Z,98195.13
2023-04-27T00:16:40.848Z,98198.94
2023-04-27T00:17:43.841Z,98193.28
2023-04-27T00:18:47.041Z,98198.72
2023-04-27T00:19:49.928Z,98199.84
2023-04-27T00:20:53.128Z,98199.12
2023-04-27T00:21:58.073Z,98204.56
2023-04-27T00:23:00.899Z,98194.75
2023-04-27T00:24:03.834Z,98200.91
2023-04-27T00:25:06.832Z,98211.25
2023-04-27T00:26:09.546Z,98201.66
2023-04-27T00:27:13.747Z,98203.47
2023-04-27T00:28:16.906Z,98196.78
2023-04-27T00:29:19.684Z,98200.81
2023-04-27T00:30:22.871Z,98202.44
2023-04-27T00:31:25.716Z,98199.06
2023-04-27T00:32:28.768Z,98201.44
2023-04-27T00:33:31.489Z,98196.53
2023-04-27T00:34:34.323Z,98200.16
2023-04-27T00:35:37.012Z,98189.28
2023-04-27T00:36:39.789Z,98198.41
2023-04-27T00:37:42.768Z,98187.94
2023-04-27T00:38:45.914Z,98204.09
2023-04-27T00:39:48.633Z,98194.87
2023-04-27T00:40:51.545Z,98194.50
2023-04-27T00:41:54.367Z,98198.34
2023-04-27T00:42:57.152Z,98198.00
2023-04-27T00:43:59.967Z,98193.69
2023-04-27T00:45:03.591Z,98201.47
2023-04-27T00:46:06.442Z,98202.19
2023-04-27T00:47:11.259Z,98201.47
2023-04-27T00:48:14.142Z,98200.03
2023-04-27T00:49:17.115Z,98190.59
2023-04-27T00:50:33.315Z,98194.44
2023-04-27T00:51:36.820Z,98186.81
2023-04-27T00:52:40.129Z,98182.81
2023-04-27T00:53:43.716Z,98188.09
2023-04-27T00:54:50.925Z,98193.53
2023-04-27T00:55:53.658Z,98192.03
2023-04-27T00:56:56.386Z,98185.88
2023-04-27T00:57:59.180Z,98184.97
2023-04-27T00:59:01.904Z,98192.94
2023-04-27T01:00:07.336Z,98198.56
2023-04-27T01:01:11.154Z,98197.13
2023-04-27T01:02:14.509Z,98192.94
2023-04-27T01:03:18.232Z,98192.44
2023-04-27T01:04:21.812Z,98188.44
2023-04-27T01:05:26.598Z,98193.00
2023-04-27T01:06:29.949Z,98186.28
2023-04-27T01:07:32.764Z,98189.72
2023-04-27T01:08:35.938Z,98192.88
2023-04-27T01:09:38.650Z,98188.88
2023-04-27T01:10:42.356Z,98188.34
2023-04-27T01:11:48.994Z,98182.91
2023-04-27T01:12:52.016Z,98182.72
2023-04-27T01:13:55.698Z,98188.72
2023-04-27T01:14:58.595Z,98185.44
2023-04-27T01:16:01.408Z,98186.34
2023-04-27T01:17:04.209Z,98197.03
2023-04-27T01:18:07.489Z,98189.78
2023-04-27T01:19:10.411Z,98188.34
2023-04-27T01:20:13.375Z,98194.66
2023-04-27T01:21:16.883Z,98186.13
2023-04-27T01:22:19.614Z,98187.94
2023-04-27T01:23:22.713Z,98197.72
2023-04-27T01:24:25.627Z,98193.94
2023-04-27T01:25:28.278Z,98186.50
2023-04-27T01:26:31.071Z,98187.78
2023-04-27T01:27:34.336Z,98198.66
2023-04-27T01:28:37.422Z,98192.66
2023-04-27T01:29:40.534Z,98199.22
2023-04-27T01:30:43.658Z,98200.66
2023-04-27T01:31:46.786Z,98186.66
2023-04-27T01:32:50.356Z,98193.56
2023-04-27T01:33:53.177Z,98199.03
2023-04-27T01:34:56.095Z,98195.59
2023-04-27T01:35:58.754Z,98198.84
2023-04-27T01:37:01.700Z,98207.56
2023-04-27T01:38:04.610Z,98198.84
2023-04-27T01:39:09.631Z,98197.44
2023-04-27T01:40:13.245Z,98203.94
2023-04-27T01:41:16.090Z,98197.56
2023-04-27T01:42:18.818Z,98209.00
2023-04-27T01:43:21.776Z,98205.38
2023-04-27T01:44:24.985Z,98202.87
2023-04-27T01:45:27.746Z,98201.22
2023-04-27T01:46:30.688Z,98210.09
2023-04-27T01:47:33.652Z,98201.87
2023-04-27T01:48:36.745Z,98202.03
2023-04-27T01:49:39.417Z,98217.25
2023-04-27T01:50:42.260Z,98217.25
2023-04-27T01:51:45.260Z,98207.66
2023-04-27T01:52:48.053Z,98214.91
2023-04-27T01:53:50.790Z,98211.97
2023-04-27T01:54:53.855Z,98209.94
2023-04-27T01:55:57.137Z,98212.28
2023-04-27T01:57:00.122Z,98209.72
2023-04-27T01:58:03.070Z,98215.69
2023-04-27T01:59:05.971Z,98218.09
2023-04-27T02:00:09.508Z,98213.56
2023-04-27T02:01:12.458Z,98219.34
2023-04-27T02:02:15.346Z,98213.31
2023-04-27T02:03:18.539Z,98216.25
2023-04-27T02:04:21.533Z,98216.78
2023-04-27T02:05:24.681Z,98214.56
2023-04-27T02:06:27.973Z,98213.47
2023-04-27T02:07:30.881Z,98207.28
2023-04-27T02:08:35.074Z,98214.94
2023-04-27T02:09:38.246Z,98217.84
2023-04-27T02:10:41.278Z,98222.22
2023-04-27T02:11:44.203Z,98213.47
2023-04-27T02:12:47.011Z,98208.94
2023-04-27T02:13:49.752Z,98215.09
2023-04-27T02:14:52.507Z,98210.16
2023-04-27T02:15:56.537Z,98214.88
2023-04-27T02:16:59.539Z,98210.16
2023-04-27T02:18:04.079Z,98217.09
2023-04-27T02:19:07.213Z,98216.31
2023-04-27T02:20:11.198Z,98213.75
2023-04-27T02:21:14.108Z,98218.09
2023-04-27T02:22:17.591Z,98216.44
2023-04-27T02:23:20.262Z,98216.59
2023-04-27T02:24:22.959Z,98215.84
2023-04-27T02:25:26.130Z,98214.12
2023-04-27T02:26:32.566Z,98217.56
2023-04-27T02:27:41.066Z,98220.25
2023-04-27T02:28:44.328Z,98215.31
2023-04-27T02:29:47.594Z,98227.44
2023-04-27T02:30:51.031Z,98225.47
2023-04-27T02:31:53.960Z,98224.56
2023-04-27T02:33:01.816Z,98222.34
2023-04-27T02:34:04.471Z,98220.91
2023-04-27T02:35:08.192Z,98224.47
2023-04-27T02:36:10.955Z,98230.28
2023-04-27T02:37:13.671Z,98231.84
2023-04-27T02:38:16.468Z,98236.16
2023-04-27T02:39:19.207Z,98240.47
2023-04-27T02:40:22.312Z,98241.75
2023-04-27T02:41:28.142Z,98237.34
2023-04-27T02:42:31.069Z,98241.47
2023-04-27T02:43:33.800Z,98242.88
2023-04-27T02:44:36.623Z,98241.53
2023-04-27T02:45:39.534Z,98241.69
2023-04-27T02:46:42.387Z,98237.41
2023-04-27T02:47:45.867Z,98244.25
2023-04-27T02:48:48.974Z,98247.06
2023-04-27T02:49:53.142Z,98244.50
2023-04-27T02:50:57.042Z,98252.75
2023-04-27T02:51:59.937Z,98246.53
2023-04-27T02:53:03.009Z,98250.28
2023-04-27T02:54:05.731Z,98248.63
2023-04-27T02:55:08.947Z,98252.19
2023-04-27T02:56:11.654Z,98247.81
2023-04-27T02:57:14.527Z,98249.78
2023-04-27T02:58:17.499Z,98251.56
2023-04-27T02:59:20.408Z,98244.66
2023-04-27T03:00:23.332Z,98254.91
2023-04-27T03:01:26.242Z,98250.31
2023-04-27T03:02:29.242Z,98250.13
2023-04-27T03:03:32.318Z,98250.22
2023-04-27T03:04:36.829Z,98246.38
2023-04-27T03:05:39.664Z,98252.00
2023-04-27T03:06:51.683Z,98254.09
2023-04-27T03:07:54.392Z,98253.69
2023-04-27T03:08:57.015Z,98257.44
2023-04-27T03:09:59.788Z,98259.75
2023-04-27T03:11:02.739Z,98248.47
2023-04-27T03:12:05.834Z,98258.59
2023-04-27T03:13:08.558Z,98259.31
2023-04-27T03:14:12.930Z,98261.13
2023-04-27T03:15:16.065Z,98256.00
2023-04-27T03:16:18.886Z,98261.72
2023-04-27T03:17:21.712Z,98253.91
2023-04-27T03:18:24.552Z,98265.78
2023-04-27T03:19:27.250Z,98268.09
2023-04-27T03:20:30.052Z,98258.81
2023-04-27T03:21:32.931Z,98251.00
2023-04-27T03:22:38.892Z,98258.16
2023-04-27T03:23:41.621Z,98257.25
2023-04-27T03:24:44.460Z,98255.78
2023-04-27T03:25:49.025Z,98260.78
2023-04-27T03:26:52.724Z,98257.53
2023-04-27T03:27:55.476Z,98263.69
2023-04-27T03:28:58.253Z,98263.69
2023-04-27T03:30:00.980Z,98258.06
2023-04-27T03:31:12.785Z,98263.28
2023-04-27T03:32:15.771Z,98259.84
2023-04-27T03:33:18.886Z,98266.19
2023-04-27T03:34:21.922Z,98261.81
2023-04-27T03:35:24.697Z,98267.03
2023-04-27T03:36:27.465Z,98272.16
2023-04-27T03:37:30.411Z,98267.47
2023-04-27T03:38:33.888Z,98272.66
2023-04-27T03:39:36.639Z,98271.00
2023-04-27T03:40:39.783Z,98271.28
2023-04-27T03:41:42.721Z,98274.53
2023-04-27T03:42:45.751Z,98277.25
2023-04-27T03:43:49.284Z,98265.88
2023-04-27T03:44:52.042Z,98281.62
2023-04-27T03:45:54.912Z,98272.03
2023-04-27T03:46:57.751Z,98276.22
2023-04-27T03:48:00.473Z,98280.88
2023-04-27T03:49:03.528Z,98275.25
2023-04-27T03:50:07.023Z,98279.41
2023-04-27T03:51:10.028Z,98281.09
2023-04-27T03:52:14.601Z,98281.94
2023-04-27T03:53:17.420Z,98276.06
2023-04-27T03:54:20.102Z,98275.16
2023-04-27T03:55:22.772Z,98279.31
2023-04-27T03:56:25.588Z,98279.00
2023-04-27T03:57:28.384Z,98287.34
2023-04-27T03:58:31.135Z,98283.91
2023-04-27T03:59:33.762Z,98285.56
2023-04-27T04:00:37.849Z,98283.81
2023-04-27T04:01:41.496Z,98284.00
2023-04-27T04:02:45.162Z,98283.38
2023-04-27T04:03:48.511Z,98283.38
2023-04-27T04:04:51.579Z,98286.81
2023-04-27T04:05:54.415Z,98279.22
2023-04-27T04:06:57.171Z,98290.06
2023-04-27T04:08:00.420Z,98296.50
2023-04-27T04:09:03.901Z,98290.88
2023-04-27T04:10:08.067Z,98293.59
2023-04-27T04:11:10.912Z,98294.00
2023-04-27T04:12:13.906Z,98300.87
2023-04-27T04:13:17.051Z,98292.03
2023-04-27T04:14:19.803Z,98295.47
2023-04-27T04:15:22.614Z,98293.78
2023-04-27T04:16:25.369Z,98297.97
2023-04-27T04:17:28.411Z,98306.09
2023-04-27T04:18:31.234Z,98298.47
2023-04-27T04:19:34.348Z,98301.19
2023-04-27T04:20:37.057Z,98305.59
2023-04-27T04:21:39.757Z,98301.63
2023-04-27T04:22:43.484Z,98303.41
2023-04-27T04:23:46.236Z,98303.91
2023-04-27T04:24:48.857Z,98303.41
2023-04-27T04:25:51.909Z,98313.47
2023-04-27T04:26:54.756Z,98311.00
2023-04-27T04:27:58.125Z,98315.16
2023-04-27T04:29:01.332Z,98307.03
2023-04-27T04:30:06.550Z,98306.94
2023-04-27T04:31:09.999Z,98313.09
2023-04-27T04:32:17.869Z,98303.06
2023-04-27T04:33:20.653Z,98315.81
2023-04-27T04:34:23.549Z,98314.63
2023-04-27T04:35:26.358Z,98313.19
2023-04-27T04:36:29.181Z,98316.84
2023-04-27T04:37:34.492Z,98311.63
2023-04-27T04:38:38.202Z,98315.28
2023-04-27T04:39:41.085Z,98312.91
2023-04-27T04:40:45.850Z,98317.06
2023-04-27T04:41:49.971Z,98318.31
2023-04-27T04:42:53.119Z,98316.03
2023-04-27T04:43:55.837Z,98318.94
2023-04-27T04:44:58.984Z,98321.78
2023-04-27T04:46:01.775Z,98318.47
2023-04-27T04:47:05.337Z,98321.91
2023-04-27T04:48:08.864Z,98319.72
2023-04-27T04:49:12.319Z,98327.50
2023-04-27T04:50:15.681Z,98318.44
2023-04-27T04:51:18.350Z,98326.28
2023-04-27T04:52:21.434Z,98323.16
2023-04-27T04:53:24.165Z,98319.69
2023-04-27T04:54:26.753Z,98318.78
2023-04-27T04:55:29.524Z,98322.63
2023-04-27T04:56:32.298Z,98323.56
2023-04-27T04:57:35.011Z,98324.50
2023-04-27T04:58:37.940Z,98326.06
2023-04-27T04:59:41.385Z,98329.81
2023-04-27T05:00:44.052Z,98335.00
2023-04-27T05:01:46.955Z,98326.75
2023-04-27T05:02:50.306Z,98327.22
2023-04-27T05:03:53.447Z,98331.16
2023-04-27T05:04:58.069Z,98328.12
2023-04-27T05:06:00.987Z,98325.56
2023-04-27T05:07:04.946Z,98334.84
2023-04-27T05:08:07.750Z,98334.38
2023-04-27T05:09:10.417Z,98337.47
2023-04-27T05:10:13.210Z,98327.94
2023-04-27T05:11:15.971Z,98338.53
2023-04-27T05:12:19.293Z,98337.53
2023-04-27T05:13:22.153Z,98341.44
2023-04-27T05:14:24.782Z,98335.34
2023-04-27T05:15:27.448Z,98339.59
2023-04-27T05:16:31.199Z,98343.84
2023-04-27T05:17:34.065Z,98342.03
2023-04-27T05:18:36.968Z,98340.44
2023-04-27T05:19:39.784Z,98346.50
2023-04-27T05:20:42.589Z,98342.50
2023-04-27T05:21:45.696Z,98342.38
2023-04-27T05:22:48.437Z,98349.66
2023-04-27T05:23:51.115Z,98350.41
2023-04-27T05:24:53.879Z,98349.16
2023-04-27T05:25:56.734Z,98349.31
2023-04-27T05:27:00.796Z,98349.34
2023-04-27T05:28:05.322Z,98352.66
2023-04-27T05:29:08.206Z,98353.75
2023-04-27T05:30:11.656Z,98356.88
2023-04-27T05:31:15.218Z,98348.31
2023-04-27T05:32:18.092Z,98353.81
2023-04-27T05:33:21.111Z,98355.13
2023-04-27T05:34:23.835Z,98355.84
2023-04-27T05:35:26.532Z,98351.12
2023-04-27T05:36:29.384Z,98356.03
2023-04-27T05:37:32.049Z,98359.12
2023-04-27T05:38:36.285Z,98360.41
2023-04-27T05:39:39.382Z,98360.59
2023-04-27T05:40:42.276Z,98356.75
2023-04-27T05:41:45.060Z,98359.47
2023-04-27T05:42:48.628Z,98359.59
2023-04-27T05:43:51.636Z,98365.59
2023-04-27T05:44:54.372Z,98362.69
2023-04-27T05:46:05.908Z,98365.75
2023-04-27T05:47:08.700Z,98365.03
2023-04-27T05:48:12.200Z,98363.03
2023-04-27T05:49:15.496Z,98361.03
2023-04-27T05:50:18.360Z,98366.66
2023-04-27T05:51:21.188Z,98365.41
2023-04-27T05:52:29.732Z,98372.47
2023-04-27T05:53:34.805Z,98373.19
2023-04-27T05:54:37.359Z,98376.63
2023-04-27T05:55:40.286Z,98377.69
2023-04-27T05:56:42.937Z,98374.75
2023-04-27T05:57:47.666Z,98374.91
2023-04-27T05:58:52.612Z,98370.34
2023-04-27T05:59:55.848Z,98373.62
2023-04-27T06:00:59.102Z,98375.03
2023-04-27T06:02:02.012Z,98378.88
2023-04-27T06:03:05.082Z,98375.03
2023-04-27T06:04:08.387Z,98376.81
2023-04-27T06:05:11.472Z,98369.28
2023-04-27T06:06:14.289Z,98379.88
2023-04-27T06:07:17.249Z,98384.59
2023-04-27T06:08:19.990Z,98376.59
2023-04-27T06:09:22.706Z,98377.06
2023-04-27T06:10:25.516Z,98383.94
2023-04-27T06:11:28.818Z,98384.16
2023-04-27T06:12:31.961Z,98387.25
2023-04-27T06:13:34.806Z,98386.25
2023-04-27T06:14:38.304Z,98382.06
2023-04-27T06:15:41.243Z,98385.91
2023-04-27T06:16:44.132Z,98385.69
2023-04-27T06:17:47.025Z,98390.03
2023-04-27T06:18:51.313Z,98387.13
2023-04-27T06:19:53.973Z,98391.84
2023-04-27T06:21:02.021Z,98390.81
2023-04-27T06:22:05.276Z,98389.91
2023-04-27T06:23:07.979Z,98389.69
2023-04-27T06:24:10.668Z,98393.06
2023-04-27T06:25:13.442Z,98385.06
2023-04-27T06:26:16.227Z,98385.81
2023-04-27T06:27:18.922Z,98389.25
2023-04-27T06:28:21.774Z,98390.25
2023-04-27T06:29:24.815Z,98388.47
2023-04-27T06:30:28.089Z,98388.88
2023-04-27T06:31:31.683Z,98391.22
2023-04-27T06:32:34.638Z,98394.94
2023-04-27T06:33:37.399Z,98384.00
2023-04-27T06:34:40.015Z,98383.59
2023-04-27T06:35:44.579Z,98389.25
2023-04-27T06:36:48.793Z,98388.28
2023-04-27T06:37:51.666Z,98386.03
2023-04-27T06:38:58.252Z,98386.13
2023-04-27T06:40:00.928Z,98381.62
2023-04-27T06:41:03.727Z,98389.75
2023-04-27T06:42:06.638Z,98386.53
2023-04-27T06:43:09.394Z,98390.97
2023-04-27T06:44:12.151Z,98390.34
2023-04-27T06:45:14.993Z,98398.69
2023-04-27T06:46:17.811Z,98388.47
2023-04-27T06:47:21.422Z,98394.38
2023-04-27T06:48:24.386Z,98405.31
2023-04-27T06:49:27.516Z,98397.59
2023-04-27T06:50:30.682Z,98394.22
2023-04-27T06:51:33.515Z,98393.06
2023-04-27T06:52:36.394Z,98406.13
2023-04-27T06:53:40.236Z,98398.31
2023-04-27T06:54:43.024Z,98403.94
2023-04-27T06:55:48.293Z,98400.94
2023-04-27T06:56:51.979Z,98403.88
2023-04-27T06:57:54.926Z,98404.59
2023-04-27T06:58:57.919Z,98404.19
2023-04-27T07:00:00.677Z,98407.41
2023-04-27T07:01:04.345Z,98413.09
2023-04-27T07:02:07.977Z,98404.12
2023-04-27T07:03:11.272Z,98406.13
2023-04-27T07:04:14.299Z,98405.56
2023-04-27T07:05:17.256Z,98412.81
2023-04-27T07:06:20.043Z,98408.37
2023-04-27T07:07:22.931Z,98418.38
2023-04-27T07:08:26.182Z,98407.28
2023-04-27T07:09:29.227Z,98416.81
2023-04-27T07:10:32.120Z,98406.03
2023-04-27T07:11:35.570Z,98409.53
2023-04-27T07:12:40.129Z,98412.47
2023-04-27T07:13:43.280Z,98409.88
2023-04-27T07:14:46.454Z,98422.00
2023-04-27T07:15:49.245Z,98411.03
2023-04-27T07:16:56.914Z,98421.03
2023-04-27T07:17:59.730Z,98417.56
2023-04-27T07:19:02.672Z,98415.84
2023-04-27T07:20:07.220Z,98420.06
2023-04-27T07:21:10.380Z,98417.22
2023-04-27T07:22:13.055Z,98423.19
2023-04-27T07:23:16.693Z,98425.78
2023-04-27T07:24:20.439Z,98420.53
2023-04-27T07:25:23.489Z,98422.84
2023-04-27T07:26:27.234Z,98414.88
2023-04-27T07:27:32.140Z,98417.75
2023-04-27T07:28:38.544Z,98420.91
2023-04-27T07:29:41.402Z,98419.00
2023-04-27T07:30:44.832Z,98426.09
2023-04-27T07:31:48.172Z,98429.97
2023-04-27T07:32:55.026Z,98426.59
2023-04-27T07:33:58.322Z,98427.78
2023-04-27T07:35:01.153Z,98426.59
2023-04-27T07:36:04.754Z,98428.50
2023-04-27T07:37:08.323Z,98432.53
2023-04-27T07:38:11.109Z,98430.81
2023-04-27T07:39:15.049Z,98433.81
2023-04-27T07:40:18.752Z,98423.84
2023-04-27T07:41:23.696Z,98418.38
2023-04-27T07:42:26.484Z,98425.47
2023-04-27T07:43:29.830Z,98421.19
2023-04-27T07:44:32.537Z,98419.34
2023-04-27T07:45:37.447Z,98420.56
2023-04-27T07:46:40.774Z,98420.88
2023-04-27T07:47:44.452Z,98412.09
2023-04-27T07:48:50.005Z,98415.28
2023-04-27T07:49:53.203Z,98410.34
2023-04-27T07:50:56.053Z,98408.00
2023-04-27T07:51:59.376Z,98411.75
2023-04-27T07:53:02.182Z,98416.09
2023-04-27T07:54:05.178Z,98411.94
2023-04-27T07:55:08.331Z,98416.37
2023-04-27T07:56:11.433Z,98413.03
2023-04-27T07:57:14.214Z,98417.25
2023-04-27T07:58:17.167Z,98418.28
2023-04-27T07:59:20.248Z,98413.59
2023-04-27T08:00:25.363Z,98416.06
2023-04-27T08:01:28.193Z,98414.34
2023-04-27T08:02:31.831Z,98418.56
2023-04-27T08:03:35.210Z,98413.59
2023-04-27T08:04:38.473Z,98417.28
2023-04-27T08:05:42.244Z,98420.34
2023-04-27T08:06:46.832Z,98428.78
2023-04-27T08:07:50.355Z,98423.41
2023-04-27T08:08:53.380Z,98428.09
2023-04-27T08:09:56.324Z,98422.75
2023-04-27T08:10:59.110Z,98419.78
2023-04-27T08:12:03.387Z,98419.81
2023-04-27T08:13:09.918Z,98414.34
2023-04-27T08:14:13.966Z,98426.50
2023-04-27T08:15:17.344Z,98419.31
2023-04-27T08:16:20.567Z,98420.63
2023-04-27T08:17:23.445Z,98425.25
2023-04-27T08:18:27.389Z,98431.03
2023-04-27T08:19:30.134Z,98427.00
2023-04-27T08:20:33.334Z,98429.72
2023-04-27T08:21:37.591Z,98432.94
2023-04-27T08:22:41.569Z,98424.09
2023-04-27T08:23:44.437Z,98430.63
2023-04-27T08:24:47.222Z,98427.16
2023-04-27T08:25:50.014Z,98428.16
2023-04-27T08:26:52.755Z,98427.44
2023-04-27T08:27:55.632Z,98438.84
2023-04-27T08:28:59.909Z,98438.41
2023-04-27T08:30:02.604Z,98429.56
2023-04-27T08:31:06.233Z,98432.31
2023-04-27T08:32:09.618Z,98440.75
2023-04-27T08:33:12.444Z,98434.81
2023-04-27T08:34:15.098Z,98429.00
2023-04-27T08:35:18.323Z,98436.53
2023-04-27T08:36:24.712Z,98432.16
2023-04-27T08:37:27.783Z,98431.69
2023-04-27T08:38:30.733Z,98427.12
2023-04-27T08:39:33.460Z,98431.13
2023-04-27T08:40:36.299Z,98426.22
2023-04-27T08:41:43.914Z,98428.03
2023-04-27T08:43:01.321Z,98429.53
2023-04-27T08:44:07.195Z,98428.22
2023-04-27T08:45:10.164Z,98420.03
2023-04-27T08:46:13.018Z,98426.66
2023-04-27T08:47:16.128Z,98419.62
2023-04-27T08:48:20.616Z,98427.56
2023-04-27T08:49:23.586Z,98420.88
2023-04-27T08:50:26.543Z,98423.16
2023-04-27T08:51:30.026Z,98423.31
2023-04-27T08:52:33.337Z,98424.59
2023-04-27T08:53:36.122Z,98428.50
2023-04-27T08:54:39.108Z,98426.13
2023-04-27T08:55:41.848Z,98422.06
2023-04-27T08:56:44.965Z,98432.69
2023-04-27T08:57:57.407Z,98425.91
2023-04-27T08:59:01.928Z,98421.16
2023-04-27T09:00:15.334Z,98422.22
2023-04-27T09:01:18.921Z,98416.75
2023-04-27T09:02:22.134Z,98426.97
2023-04-27T09:03:25.911Z,98414.06
2023-04-27T09:04:39.770Z,98424.28
2023-04-27T09:06:00.620Z,98414.47
2023-04-27T09:07:15.274Z,98414.00
2023-04-27T09:08:18.283Z,98417.13
2023-04-27T09:09:25.456Z,98411.78
2023-04-27T09:10:31.350Z,98417.38
2023-04-27T09:11:39.098Z,98417.88
2023-04-27T09:12:41.996Z,98414.06
2023-04-27T09:13:45.648Z,98414.31
2023-04-27T09:14:59.661Z,98411.53
2023-04-27T09:16:02.726Z,98418.25
2023-04-27T09:17:05.604Z,98409.59
2023-04-27T09:18:16.449Z,98412.84
2023-04-27T09:19:25.823Z,98404.72
2023-04-27T09:20:29.483Z,98413.03
2023-04-27T09:21:32.809Z,98409.75
2023-04-27T09:22:50.077Z,98412.97
2023-04-27T09:23:53.450Z,98412.31
2023-04-27T09:24:56.719Z,98418.28
2023-04-27T09:26:08.239Z,98418.31
2023-04-27T09:27:20.011Z,98404.09
2023-04-27T09:28:23.692Z,98405.44
2023-04-27T09:29:36.673Z,98409.56
2023-04-27T09:30:39.431Z,98409.09
2023-04-27T09:31:42.201Z,98404.06
2023-04-27T09:32:58.489Z,98407.84
2023-04-27T09:34:02.098Z,98405.25
2023-04-27T09:35:22.141Z,98406.47
2023-04-27T09:36:25.964Z,98405.72
2023-04-27T09:37:30.242Z,98406.34
2023-04-27T09:38:33.652Z,98400.31
2023-04-27T09:39:37.100Z,98396.50
2023-04-27T09:40:41.424Z,98395.28
2023-04-27T09:41:44.309Z,98395.16
2023-04-27T09:42:47.737Z,98393.91
2023-04-27T09:43:51.981Z,98391.34
2023-04-27T09:44:54.959Z,98385.47
2023-04-27T09:45:59.162Z,98393.25
2023-04-27T09:47:02.693Z,98393.75
2023-04-27T09:48:07.335Z,98399.41
2023-04-27T09:49:12.057Z,98396.72
2023-04-27T09:50:15.275Z,98388.53
2023-04-27T09:51:18.125Z,98392.63
2023-04-27T09:52:20.888Z,98397.62
2023-04-27T09:53:34.160Z,98387.88
2023-04-27T09:54:37.749Z,98388.78
2023-04-27T09:55:52.614Z,98394.38
2023-04-27T09:57:29.046Z,98391.91
2023-04-27T09:58:34.829Z,98387.13
2023-04-27T10:00:11.302Z,98395.28
2023-04-27T10:01:26.137Z,98386.03
2023-04-27T10:02:52.136Z,98388.56
2023-04-27T10:04:30.785Z,98380.28
2023-04-27T10:06:12.635Z,98384.59
2023-04-27T10:07:16.820Z,98382.19
2023-04-27T10:08:20.893Z,98389.16
2023-04-27T10:09:24.010Z,98385.78
2023-04-27T10:10:26.791Z,98384.72
2023-04-27T10:11:41.029Z,98388.91
2023-04-27T10:12:43.826Z,98378.22
2023-04-27T10:13:54.803Z,98382.78
2023-04-27T10:14:59.716Z,98385.19
2023-04-27T10:16:16.982Z,98386.38
2023-04-27T10:17:54.406Z,98384.69
2023-04-27T10:18:57.803Z,98377.00
2023-04-27T10:20:04.041Z,98384.09
2023-04-27T10:21:10.966Z,98376.66
2023-04-27T10:22:13.836Z,98382.19
2023-04-27T10:23:26.833Z,98380.31
2023-04-27T10:24:40.983Z,98376.44
2023-04-27T10:25:47.638Z,98373.84
2023-04-27T10:26:51.593Z,98375.88
2023-04-27T10:27:56.647Z,98373.44
2023-04-27T10:29:08.778Z,98373.72
2023-04-27T10:30:12.809Z,98362.66
2023-04-27T10:31:16.257Z,98376.72
2023-04-27T10:32:21.477Z,98369.44
2023-04-27T10:33:25.264Z,98368.88
2023-04-27T10:34:28.584Z,98374.19
2023-04-27T10:35:35.270Z,98365.91
2023-04-27T10:36:41.265Z,98384.09
2023-04-27T10:37:44.365Z,98375.16
2023-04-27T10:38:56.457Z,98374.00
2023-04-27T10:40:08.770Z,98386.41
2023-04-27T10:41:18.328Z,98373.19
2023-04-27T10:42:30.879Z,98377.72
2023-04-27T10:43:36.056Z,98379.03
2023-04-27T10:44:39.845Z,98382.47
2023-04-27T10:45:44.021Z,98377.16
2023-04-27T10:46:53.844Z,98383.66
2023-04-27T10:48:00.719Z,98383.38
2023-04-27T10:49:06.070Z,98379.53
2023-04-27T10:50:13.873Z,98379.16
2023-04-27T10:51:20.355Z,98383.72
2023-04-27T10:52:23.328Z,98381.19
2023-04-27T10:53:27.376Z,98376.41
2023-04-27T10:54:30.705Z,98378.16
2023-04-27T10:55:35.196Z,98381.59
2023-04-27T10:56:38.108Z,98377.69
2023-04-27T10:57:52.003Z,98377.41
2023-04-27T10:58:55.019Z,98384.97
2023-04-27T10:59:58.186Z,98384.03
2023-04-27T11:01:01.052Z,98386.66
2023-04-27T11:02:04.342Z,98379.63
2023-04-27T11:03:12.131Z,98381.19
2023-04-27T11:04:15.231Z,98383.66
2023-04-27T11:05:25.417Z,98377.06
2023-04-27T11:06:30.532Z,98375.16
2023-04-27T11:07:34.270Z,98377.03
2023-04-27T11:08:46.081Z,98362.91
2023-04-27T11:09:49.283Z,98366.25
2023-04-27T11:10:52.504Z,98368.72
2023-04-27T11:11:55.703Z,98368.47
2023-04-27T11:12:59.182Z,98374.69
2023-04-27T11:14:03.820Z,98367.22
2023-04-27T11:15:07.407Z,98378.97
2023-04-27T11:16:10.430Z,98370.37
2023-04-27T11:17:13.895Z,98370.06
2023-04-27T11:18:21.507Z,98367.28
2023-04-27T11:19:24.317Z,98366.34
2023-04-27T11:20:27.290Z,98366.47
2023-04-27T11:21:30.711Z,98366.50
2023-04-27T11:22:33.668Z,98372.56
2023-04-27T11:23:40.072Z,98375.31
2023-04-27T11:24:52.790Z,98377.87
2023-04-27T11:25:56.799Z,98372.06
2023-04-27T11:27:00.254Z,98376.19
2023-04-27T11:28:03.112Z,98377.59
2023-04-27T11:29:14.480Z,98380.28
2023-04-27T11:30:22.356Z,98375.47
2023-04-27T11:31:26.451Z,98374.25
2023-04-27T11:32:29.282Z,98370.16
2023-04-27T11:33:32.726Z,98379.78
2023-04-27T11:34:38.953Z,98371.22
2023-04-27T11:35:42.814Z,98363.19
2023-04-27T11:37:03.785Z,98364.50
2023-04-27T11:38:18.933Z,98368.00
2023-04-27T11:39:23.027Z,98366.56
2023-04-27T11:40:26.039Z,98362.37
2023-04-27T11:41:38.049Z,98368.13
2023-04-27T11:42:43.924Z,98365.00
2023-04-27T11:43:47.956Z,98366.06
2023-04-27T11:45:01.900Z,98363.56
2023-04-27T11:46:06.233Z,98369.28
2023-04-27T11:47:09.357Z,98375.19
2023-04-27T11:48:16.891Z,98369.19
2023-04-27T11:49:26.290Z,98371.00
2023-04-27T11:50:29.049Z,98381.72
2023-04-27T11:51:39.366Z,98377.50
2023-04-27T11:52:42.029Z,98378.94
2023-04-27T11:53:48.361Z,98372.66
2023-04-27T11:54:53.550Z,98373.62
2023-04-27T11:55:56.444Z,98374.69
2023-04-27T11:57:06.237Z,98369.78
2023-04-27T11:58:16.408Z,98375.06
2023-04-27T11:59:23.575Z,98376.66
2023-04-27T12:00:26.704Z,98372.91
2023-04-27T12:01:37.496Z,98366.66
2023-04-27T12:02:42.140Z,98367.75
2023-04-27T12:03:45.109Z,98366.06
2023-04-27T12:04:49.420Z,98366.75
2023-04-27T12:05:53.100Z,98369.28
2023-04-27T12:06:56.272Z,98370.00
2023-04-27T12:07:59.157Z,98376.94
2023-04-27T12:09:02.334Z,98370.09
2023-04-27T12:10:07.002Z,98376.69
2023-04-27T12:11:10.372Z,98365.53
2023-04-27T12:12:14.297Z,98366.12
2023-04-27T12:13:17.283Z,98365.62
2023-04-27T12:14:20.098Z,98357.41
2023-04-27T12:15:22.839Z,98365.75
2023-04-27T12:16:25.988Z,98360.47
2023-04-27T12:17:29.033Z,98372.81
2023-04-27T12:18:32.230Z,98362.66
2023-04-27T12:19:37.106Z,98362.53
2023-04-27T12:20:40.768Z,98359.91
2023-04-27T12:21:43.919Z,98356.94
2023-04-27T12:22:46.926Z,98366.22
2023-04-27T12:23:49.873Z,98362.97
2023-04-27T12:24:52.787Z,98361.75
2023-04-27T12:25:55.471Z,98362.37
2023-04-27T12:26:58.887Z,98356.22
2023-04-27T12:28:01.739Z,98360.16
2023-04-27T12:29:04.513Z,98366.69
2023-04-27T12:30:08.292Z,98364.63
2023-04-27T12:31:18.954Z,98364.41
2023-04-27T12:32:21.840Z,98364.53
2023-04-27T12:33:25.207Z,98359.97
2023-04-27T12:34:28.695Z,98365.09
2023-04-27T12:35:32.216Z,98363.03
2023-04-27T12:36:35.098Z,98361.72